Goessel, Kansas
Current Conditions -  °F | °C
As of 5:15 AM on Sunday 23 Nov 2014 (Local Time) from KEWK Reporting Station
Overcast Overcast  
Wind Chill: 54°   Ceiling: 1400
Heat Index: 54°   Visibility: 10mi
Dew Point: 46°   Wind: 14mph
Humidity: 77%   Direction: 170°S
Pressure: 29.48"   Gusts: 21mph
Location:  38.25°N, 97.35°W
Report Text: KEWK 231115Z AUTO 17012G18KT 10SM OVC014 12/08 A2948 RMK AO1
Loading
Personal Weather Stations






























Interactive Weather Map New forecast layout! Learn more

10-Day Weather Forecast

Advertisements
Track Severe Weather on mobile